sensor_id;sensor_type;location;lat;lon;timestamp;temperature;humidity
14884;DHT22;7534;50.762;7.000;2024-01-30T00:02:19;4.10;97.10
14884;DHT22;7534;50.762;7.000;2024-01-30T00:04:44;4.10;97.10
14884;DHT22;7534;50.762;7.000;2024-01-30T00:07:10;4.00;97.20
14884;DHT22;7534;50.762;7.000;2024-01-30T00:09:37;4.00;97.40
14884;DHT22;7534;50.762;7.000;2024-01-30T00:12:04;4.00;97.70
14884;DHT22;7534;50.762;7.000;2024-01-30T00:14:31;4.00;97.70
14884;DHT22;7534;50.762;7.000;2024-01-30T00:16:57;4.00;97.70
14884;DHT22;7534;50.762;7.000;2024-01-30T00:19:23;4.10;97.70
14884;DHT22;7534;50.762;7.000;2024-01-30T00:21:49;4.20;97.50
14884;DHT22;7534;50.762;7.000;2024-01-30T00:24:14;4.40;97.50
14884;DHT22;7534;50.762;7.000;2024-01-30T00:26:41;4.40;97.20
14884;DHT22;7534;50.762;7.000;2024-01-30T00:29:07;4.40;97.00
14884;DHT22;7534;50.762;7.000;2024-01-30T00:31:32;4.40;96.90
14884;DHT22;7534;50.762;7.000;2024-01-30T00:33:58;4.50;96.80
14884;DHT22;7534;50.762;7.000;2024-01-30T00:36:24;4.50;96.30
14884;DHT22;7534;50.762;7.000;2024-01-30T00:38:50;4.40;96.00
14884;DHT22;7534;50.762;7.000;2024-01-30T00:41:17;4.40;96.20
14884;DHT22;7534;50.762;7.000;2024-01-30T00:43:44;4.30;96.40
14884;DHT22;7534;50.762;7.000;2024-01-30T00:46:10;4.30;96.70
14884;DHT22;7534;50.762;7.000;2024-01-30T00:48:36;4.20;96.60
14884;DHT22;7534;50.762;7.000;2024-01-30T00:51:01;4.10;96.50
14884;DHT22;7534;50.762;7.000;2024-01-30T00:53:27;4.00;96.60
14884;DHT22;7534;50.762;7.000;2024-01-30T00:55:53;3.90;96.80
14884;DHT22;7534;50.762;7.000;2024-01-30T00:58:19;3.70;97.00
14884;DHT22;7534;50.762;7.000;2024-01-30T01:00:45;3.70;97.30
14884;DHT22;7534;50.762;7.000;2024-01-30T01:03:10;3.60;97.50
14884;DHT22;7534;50.762;7.000;2024-01-30T01:05:36;3.60;97.80
14884;DHT22;7534;50.762;7.000;2024-01-30T01:08:02;3.60;98.00
14884;DHT22;7534;50.762;7.000;2024-01-30T01:10:28;3.70;98.30
14884;DHT22;7534;50.762;7.000;2024-01-30T01:12:54;3.80;98.50
14884;DHT22;7534;50.762;7.000;2024-01-30T01:15:19;4.00;98.40
14884;DHT22;7534;50.762;7.000;2024-01-30T01:17:45;4.10;98.20
14884;DHT22;7534;50.762;7.000;2024-01-30T01:20:11;4.10;97.90
14884;DHT22;7534;50.762;7.000;2024-01-30T01:22:37;4.10;98.00
14884;DHT22;7534;50.762;7.000;2024-01-30T01:25:04;4.10;98.10
14884;DHT22;7534;50.762;7.000;2024-01-30T01:27:33;4.20;98.20
14884;DHT22;7534;50.762;7.000;2024-01-30T01:30:00;4.30;98.00
14884;DHT22;7534;50.762;7.000;2024-01-30T01:32:26;4.30;97.70
14884;DHT22;7534;50.762;7.000;2024-01-30T01:34:51;4.30;97.70
14884;DHT22;7534;50.762;7.000;2024-01-30T01:37:17;4.40;97.80
14884;DHT22;7534;50.762;7.000;2024-01-30T01:39:43;4.50;97.50
14884;DHT22;7534;50.762;7.000;2024-01-30T01:42:09;4.40;97.20
14884;DHT22;7534;50.762;7.000;2024-01-30T01:44:34;4.40;97.10
14884;DHT22;7534;50.762;7.000;2024-01-30T01:47:00;4.40;97.20
14884;DHT22;7534;50.762;7.000;2024-01-30T01:49:27;4.30;97.30
14884;DHT22;7534;50.762;7.000;2024-01-30T01:51:54;4.40;97.60
14884;DHT22;7534;50.762;7.000;2024-01-30T01:54:22;4.30;97.70
14884;DHT22;7534;50.762;7.000;2024-01-30T01:56:50;4.30;97.80
14884;DHT22;7534;50.762;7.000;2024-01-30T01:59:17;4.30;97.90
14884;DHT22;7534;50.762;7.000;2024-01-30T02:01:43;4.30;98.00
14884;DHT22;7534;50.762;7.000;2024-01-30T02:04:11;4.30;98.20
14884;DHT22;7534;50.762;7.000;2024-01-30T02:06:37;4.40;98.50
14884;DHT22;7534;50.762;7.000;2024-01-30T02:09:03;4.40;98.40
14884;DHT22;7534;50.762;7.000;2024-01-30T02:11:30;4.50;98.30
14884;DHT22;7534;50.762;7.000;2024-01-30T02:13:57;4.50;98.20
14884;DHT22;7534;50.762;7.000;2024-01-30T02:16:27;4.60;98.00
14884;DHT22;7534;50.762;7.000;2024-01-30T02:18:53;4.60;97.70
14884;DHT22;7534;50.762;7.000;2024-01-30T02:21:19;4.70;97.40
14884;DHT22;7534;50.762;7.000;2024-01-30T02:23:46;4.70;97.20
14884;DHT22;7534;50.762;7.000;2024-01-30T02:26:12;4.80;97.00
14884;DHT22;7534;50.762;7.000;2024-01-30T02:28:38;4.90;96.80
14884;DHT22;7534;50.762;7.000;2024-01-30T02:31:05;4.90;96.50
14884;DHT22;7534;50.762;7.000;2024-01-30T02:33:31;4.90;96.30
14884;DHT22;7534;50.762;7.000;2024-01-30T02:35:57;4.90;96.40
14884;DHT22;7534;50.762;7.000;2024-01-30T02:38:23;4.90;96.30
14884;DHT22;7534;50.762;7.000;2024-01-30T02:40:50;5.00;96.20
14884;DHT22;7534;50.762;7.000;2024-01-30T02:43:16;5.00;96.00
14884;DHT22;7534;50.762;7.000;2024-01-30T02:45:42;5.00;95.90
14884;DHT22;7534;50.762;7.000;2024-01-30T02:48:08;5.00;95.90
14884;DHT22;7534;50.762;7.000;2024-01-30T02:50:34;4.90;96.10
14884;DHT22;7534;50.762;7.000;2024-01-30T02:53:00;5.00;96.30
14884;DHT22;7534;50.762;7.000;2024-01-30T02:55:26;5.00;96.20
14884;DHT22;7534;50.762;7.000;2024-01-30T02:57:52;5.10;96.00
14884;DHT22;7534;50.762;7.000;2024-01-30T03:00:18;5.10;96.00
14884;DHT22;7534;50.762;7.000;2024-01-30T03:02:45;5.10;95.90
14884;DHT22;7534;50.762;7.000;2024-01-30T03:05:11;5.10;96.10
14884;DHT22;7534;50.762;7.000;2024-01-30T03:07:37;5.10;96.10
14884;DHT22;7534;50.762;7.000;2024-01-30T03:10:06;5.20;96.00
14884;DHT22;7534;50.762;7.000;2024-01-30T03:12:33;5.20;95.80
14884;DHT22;7534;50.762;7.000;2024-01-30T03:14:59;5.20;95.60
14884;DHT22;7534;50.762;7.000;2024-01-30T03:17:25;5.20;95.50
14884;DHT22;7534;50.762;7.000;2024-01-30T03:19:51;5.10;95.50
14884;DHT22;7534;50.762;7.000;2024-01-30T03:22:17;5.10;95.50
14884;DHT22;7534;50.762;7.000;2024-01-30T03:24:43;5.00;95.70
14884;DHT22;7534;50.762;7.000;2024-01-30T03:27:09;5.00;95.90
14884;DHT22;7534;50.762;7.000;2024-01-30T03:29:35;4.90;96.10
14884;DHT22;7534;50.762;7.000;2024-01-30T03:32:00;4.90;96.30
14884;DHT22;7534;50.762;7.000;2024-01-30T03:34:26;4.90;96.50
14884;DHT22;7534;50.762;7.000;2024-01-30T03:36:52;4.90;96.40
14884;DHT22;7534;50.762;7.000;2024-01-30T03:39:18;5.00;96.40
14884;DHT22;7534;50.762;7.000;2024-01-30T03:41:43;5.00;96.20
14884;DHT22;7534;50.762;7.000;2024-01-30T03:44:10;5.00;96.20
14884;DHT22;7534;50.762;7.000;2024-01-30T03:46:39;5.00;96.30
14884;DHT22;7534;50.762;7.000;2024-01-30T03:49:05;5.00;96.10
14884;DHT22;7534;50.762;7.000;2024-01-30T03:51:30;5.00;96.30
14884;DHT22;7534;50.762;7.000;2024-01-30T03:53:56;5.00;96.40
14884;DHT22;7534;50.762;7.000;2024-01-30T03:56:21;5.00;96.20
14884;DHT22;7534;50.762;7.000;2024-01-30T03:58:47;5.10;96.20
14884;DHT22;7534;50.762;7.000;2024-01-30T04:01:14;5.10;96.10
14884;DHT22;7534;50.762;7.000;2024-01-30T04:03:43;5.10;95.90
14884;DHT22;7534;50.762;7.000;2024-01-30T04:06:09;5.10;95.80
14884;DHT22;7534;50.762;7.000;2024-01-30T04:08:36;5.10;95.80
14884;DHT22;7534;50.762;7.000;2024-01-30T04:11:06;5.10;95.90
14884;DHT22;7534;50.762;7.000;2024-01-30T04:13:35;5.10;95.70
14884;DHT22;7534;50.762;7.000;2024-01-30T04:16:01;5.10;95.70
14884;DHT22;7534;50.762;7.000;2024-01-30T04:18:28;5.00;95.70
14884;DHT22;7534;50.762;7.000;2024-01-30T04:20:54;5.00;95.80
14884;DHT22;7534;50.762;7.000;2024-01-30T04:23:20;5.10;95.40
14884;DHT22;7534;50.762;7.000;2024-01-30T04:25:45;5.00;95.20
14884;DHT22;7534;50.762;7.000;2024-01-30T04:28:11;4.90;95.50
14884;DHT22;7534;50.762;7.000;2024-01-30T04:30:38;4.90;95.50
14884;DHT22;7534;50.762;7.000;2024-01-30T04:33:04;4.80;95.40
14884;DHT22;7534;50.762;7.000;2024-01-30T04:35:30;4.80;95.70
14884;DHT22;7534;50.762;7.000;2024-01-30T04:37:55;4.80;95.90
14884;DHT22;7534;50.762;7.000;2024-01-30T04:40:21;4.90;96.00
14884;DHT22;7534;50.762;7.000;2024-01-30T04:42:47;4.90;96.00
14884;DHT22;7534;50.762;7.000;2024-01-30T04:45:13;4.90;95.70
14884;DHT22;7534;50.762;7.000;2024-01-30T04:47:38;4.80;95.40
14884;DHT22;7534;50.762;7.000;2024-01-30T04:50:08;4.70;95.70
14884;DHT22;7534;50.762;7.000;2024-01-30T04:52:35;4.70;96.10
14884;DHT22;7534;50.762;7.000;2024-01-30T04:55:01;4.70;96.20
14884;DHT22;7534;50.762;7.000;2024-01-30T04:57:27;4.70;96.30
14884;DHT22;7534;50.762;7.000;2024-01-30T04:59:53;4.60;96.30
14884;DHT22;7534;50.762;7.000;2024-01-30T05:02:19;4.60;96.40
14884;DHT22;7534;50.762;7.000;2024-01-30T05:04:44;4.70;96.30
14884;DHT22;7534;50.762;7.000;2024-01-30T05:07:10;4.60;96.20
14884;DHT22;7534;50.762;7.000;2024-01-30T05:09:36;4.50;96.30
14884;DHT22;7534;50.762;7.000;2024-01-30T05:12:02;4.50;96.40
14884;DHT22;7534;50.762;7.000;2024-01-30T05:14:27;4.60;96.40
14884;DHT22;7534;50.762;7.000;2024-01-30T05:16:53;4.50;96.20
14884;DHT22;7534;50.762;7.000;2024-01-30T05:19:19;4.50;96.30
14884;DHT22;7534;50.762;7.000;2024-01-30T05:21:45;4.60;96.20
14884;DHT22;7534;50.762;7.000;2024-01-30T05:24:11;4.50;96.10
14884;DHT22;7534;50.762;7.000;2024-01-30T05:26:37;4.50;96.10
14884;DHT22;7534;50.762;7.000;2024-01-30T05:29:02;4.40;96.00
14884;DHT22;7534;50.762;7.000;2024-01-30T05:31:28;4.40;96.10
14884;DHT22;7534;50.762;7.000;2024-01-30T05:33:55;4.40;96.30
14884;DHT22;7534;50.762;7.000;2024-01-30T05:36:20;4.40;96.60
14884;DHT22;7534;50.762;7.000;2024-01-30T05:38:47;4.30;96.70
14884;DHT22;7534;50.762;7.000;2024-01-30T05:41:12;4.40;97.10
14884;DHT22;7534;50.762;7.000;2024-01-30T05:43:40;4.50;97.40
14884;DHT22;7534;50.762;7.000;2024-01-30T05:46:06;4.50;97.30
14884;DHT22;7534;50.762;7.000;2024-01-30T05:48:32;4.60;97.30
14884;DHT22;7534;50.762;7.000;2024-01-30T05:50:58;4.50;97.40
14884;DHT22;7534;50.762;7.000;2024-01-30T05:53:25;4.50;97.50
14884;DHT22;7534;50.762;7.000;2024-01-30T05:55:51;4.40;97.30
14884;DHT22;7534;50.762;7.000;2024-01-30T05:58:16;4.40;97.40
14884;DHT22;7534;50.762;7.000;2024-01-30T06:00:42;4.40;97.30
14884;DHT22;7534;50.762;7.000;2024-01-30T06:03:08;4.40;97.30
14884;DHT22;7534;50.762;7.000;2024-01-30T06:05:33;4.50;97.20
14884;DHT22;7534;50.762;7.000;2024-01-30T06:07:59;4.40;97.00
14884;DHT22;7534;50.762;7.000;2024-01-30T06:10:25;4.40;97.20
14884;DHT22;7534;50.762;7.000;2024-01-30T06:12:51;4.30;97.40
14884;DHT22;7534;50.762;7.000;2024-01-30T06:15:16;4.30;97.60
14884;DHT22;7534;50.762;7.000;2024-01-30T06:17:42;4.30;97.60
14884;DHT22;7534;50.762;7.000;2024-01-30T06:20:08;4.30;97.70
14884;DHT22;7534;50.762;7.000;2024-01-30T06:22:33;4.30;97.80
14884;DHT22;7534;50.762;7.000;2024-01-30T06:25:00;4.30;97.80
14884;DHT22;7534;50.762;7.000;2024-01-30T06:27:26;4.30;97.90
14884;DHT22;7534;50.762;7.000;2024-01-30T06:29:52;4.30;98.30
14884;DHT22;7534;50.762;7.000;2024-01-30T06:32:17;4.40;98.50
14884;DHT22;7534;50.762;7.000;2024-01-30T06:34:43;4.50;98.60
14884;DHT22;7534;50.762;7.000;2024-01-30T06:37:09;4.60;98.50
14884;DHT22;7534;50.762;7.000;2024-01-30T06:39:35;4.60;98.10
14884;DHT22;7534;50.762;7.000;2024-01-30T06:42:01;4.70;97.90
14884;DHT22;7534;50.762;7.000;2024-01-30T06:44:27;4.70;97.90
14884;DHT22;7534;50.762;7.000;2024-01-30T06:46:53;4.70;97.80
14884;DHT22;7534;50.762;7.000;2024-01-30T06:49:19;4.80;97.60
14884;DHT22;7534;50.762;7.000;2024-01-30T06:51:47;4.90;97.30
14884;DHT22;7534;50.762;7.000;2024-01-30T06:54:13;4.90;97.10
14884;DHT22;7534;50.762;7.000;2024-01-30T06:56:39;4.90;97.10
14884;DHT22;7534;50.762;7.000;2024-01-30T06:59:04;5.00;97.00
14884;DHT22;7534;50.762;7.000;2024-01-30T07:01:30;4.90;96.90
14884;DHT22;7534;50.762;7.000;2024-01-30T07:03:57;4.90;96.80
14884;DHT22;7534;50.762;7.000;2024-01-30T07:06:22;4.90;96.80
14884;DHT22;7534;50.762;7.000;2024-01-30T07:08:51;4.90;96.70
14884;DHT22;7534;50.762;7.000;2024-01-30T07:11:21;4.90;96.80
14884;DHT22;7534;50.762;7.000;2024-01-30T07:13:47;4.90;96.80
14884;DHT22;7534;50.762;7.000;2024-01-30T07:16:14;4.80;96.80
14884;DHT22;7534;50.762;7.000;2024-01-30T07:18:40;4.80;96.90
14884;DHT22;7534;50.762;7.000;2024-01-30T07:21:06;4.80;97.10
14884;DHT22;7534;50.762;7.000;2024-01-30T07:23:32;4.70;97.30
14884;DHT22;7534;50.762;7.000;2024-01-30T07:25:59;4.70;97.40
14884;DHT22;7534;50.762;7.000;2024-01-30T07:28:25;4.70;97.40
14884;DHT22;7534;50.762;7.000;2024-01-30T07:30:51;4.80;97.50
14884;DHT22;7534;50.762;7.000;2024-01-30T07:33:16;4.90;97.50
14884;DHT22;7534;50.762;7.000;2024-01-30T07:35:43;4.90;97.30
14884;DHT22;7534;50.762;7.000;2024-01-30T07:38:09;4.90;97.30
14884;DHT22;7534;50.762;7.000;2024-01-30T07:40:34;5.00;97.60
14884;DHT22;7534;50.762;7.000;2024-01-30T07:43:00;5.10;97.60
14884;DHT22;7534;50.762;7.000;2024-01-30T07:45:27;5.10;97.40
14884;DHT22;7534;50.762;7.000;2024-01-30T07:47:57;5.20;97.40
14884;DHT22;7534;50.762;7.000;2024-01-30T07:50:23;5.20;97.40
14884;DHT22;7534;50.762;7.000;2024-01-30T07:52:49;5.30;97.70
14884;DHT22;7534;50.762;7.000;2024-01-30T07:55:16;5.40;97.50
14884;DHT22;7534;50.762;7.000;2024-01-30T07:57:42;5.50;97.00
14884;DHT22;7534;50.762;7.000;2024-01-30T08:00:08;5.50;96.60
14884;DHT22;7534;50.762;7.000;2024-01-30T08:02:34;5.50;96.60
14884;DHT22;7534;50.762;7.000;2024-01-30T08:05:00;5.50;96.30
14884;DHT22;7534;50.762;7.000;2024-01-30T08:07:29;5.50;96.40
14884;DHT22;7534;50.762;7.000;2024-01-30T08:09:56;5.50;96.20
14884;DHT22;7534;50.762;7.000;2024-01-30T08:12:21;5.60;95.30
14884;DHT22;7534;50.762;7.000;2024-01-30T08:14:47;5.60;94.80
14884;DHT22;7534;50.762;7.000;2024-01-30T08:17:13;5.70;94.90
14884;DHT22;7534;50.762;7.000;2024-01-30T08:19:39;5.90;94.90
14884;DHT22;7534;50.762;7.000;2024-01-30T08:22:04;5.90;94.40
14884;DHT22;7534;50.762;7.000;2024-01-30T08:24:30;6.00;94.20
14884;DHT22;7534;50.762;7.000;2024-01-30T08:26:56;6.00;94.10
14884;DHT22;7534;50.762;7.000;2024-01-30T08:29:23;6.10;93.90
14884;DHT22;7534;50.762;7.000;2024-01-30T08:31:49;6.10;93.60
14884;DHT22;7534;50.762;7.000;2024-01-30T08:34:15;6.10;93.60
14884;DHT22;7534;50.762;7.000;2024-01-30T08:36:41;6.10;93.60
14884;DHT22;7534;50.762;7.000;2024-01-30T08:39:06;6.20;94.30
14884;DHT22;7534;50.762;7.000;2024-01-30T08:41:32;6.20;94.30
14884;DHT22;7534;50.762;7.000;2024-01-30T08:43:58;6.30;94.20
14884;DHT22;7534;50.762;7.000;2024-01-30T08:46:24;6.50;94.20
14884;DHT22;7534;50.762;7.000;2024-01-30T08:48:49;6.60;93.80
14884;DHT22;7534;50.762;7.000;2024-01-30T08:51:15;6.80;92.90
14884;DHT22;7534;50.762;7.000;2024-01-30T08:53:41;7.10;92.30
14884;DHT22;7534;50.762;7.000;2024-01-30T08:56:07;7.30;91.40
14884;DHT22;7534;50.762;7.000;2024-01-30T08:58:32;7.50;90.20
14884;DHT22;7534;50.762;7.000;2024-01-30T09:00:58;7.70;89.70
14884;DHT22;7534;50.762;7.000;2024-01-30T09:03:24;8.20;88.10
14884;DHT22;7534;50.762;7.000;2024-01-30T09:05:50;8.70;85.80
14884;DHT22;7534;50.762;7.000;2024-01-30T09:08:16;9.20;84.40
14884;DHT22;7534;50.762;7.000;2024-01-30T09:10:42;9.70;82.60
14884;DHT22;7534;50.762;7.000;2024-01-30T09:13:07;9.80;80.10
14884;DHT22;7534;50.762;7.000;2024-01-30T09:15:33;9.60;80.40
14884;DHT22;7534;50.762;7.000;2024-01-30T09:17:59;9.50;80.80
14884;DHT22;7534;50.762;7.000;2024-01-30T09:20:25;9.30;81.00
14884;DHT22;7534;50.762;7.000;2024-01-30T09:22:50;9.60;81.70
14884;DHT22;7534;50.762;7.000;2024-01-30T09:25:16;10.00;78.80
14884;DHT22;7534;50.762;7.000;2024-01-30T09:27:44;10.40;77.50
14884;DHT22;7534;50.762;7.000;2024-01-30T09:30:10;11.70;75.20
14884;DHT22;7534;50.762;7.000;2024-01-30T09:32:35;13.20;69.90
14884;DHT22;7534;50.762;7.000;2024-01-30T09:35:01;14.90;66.10
14884;DHT22;7534;50.762;7.000;2024-01-30T09:37:27;15.90;62.00
14884;DHT22;7534;50.762;7.000;2024-01-30T09:39:53;16.50;60.50
14884;DHT22;7534;50.762;7.000;2024-01-30T09:42:33;17.40;57.50
14884;DHT22;7534;50.762;7.000;2024-01-30T09:45:03;17.30;57.40
14884;DHT22;7534;50.762;7.000;2024-01-30T09:47:32;16.90;59.40
14884;DHT22;7534;50.762;7.000;2024-01-30T09:49:59;16.30;59.60
14884;DHT22;7534;50.762;7.000;2024-01-30T09:52:27;15.80;61.30
14884;DHT22;7534;50.762;7.000;2024-01-30T09:54:53;15.30;63.20
14884;DHT22;7534;50.762;7.000;2024-01-30T09:57:19;14.80;64.00
14884;DHT22;7534;50.762;7.000;2024-01-30T09:59:46;14.60;65.90
14884;DHT22;7534;50.762;7.000;2024-01-30T10:02:12;14.30;66.30
14884;DHT22;7534;50.762;7.000;2024-01-30T10:04:38;14.00;66.30
14884;DHT22;7534;50.762;7.000;2024-01-30T10:07:03;13.70;67.10
14884;DHT22;7534;50.762;7.000;2024-01-30T10:09:32;13.50;67.90
14884;DHT22;7534;50.762;7.000;2024-01-30T10:11:59;13.20;69.70
14884;DHT22;7534;50.762;7.000;2024-01-30T10:14:24;13.00;70.20
14884;DHT22;7534;50.762;7.000;2024-01-30T10:16:50;12.70;70.80
14884;DHT22;7534;50.762;7.000;2024-01-30T10:19:16;12.40;73.00
14884;DHT22;7534;50.762;7.000;2024-01-30T10:21:42;12.40;73.50
14884;DHT22;7534;50.762;7.000;2024-01-30T10:24:07;12.30;73.20
14884;DHT22;7534;50.762;7.000;2024-01-30T10:26:33;12.20;73.50
14884;DHT22;7534;50.762;7.000;2024-01-30T10:28:59;12.10;73.90
14884;DHT22;7534;50.762;7.000;2024-01-30T10:31:25;12.00;74.00
14884;DHT22;7534;50.762;7.000;2024-01-30T10:33:51;12.00;74.40
14884;DHT22;7534;50.762;7.000;2024-01-30T10:36:18;11.90;75.00
14884;DHT22;7534;50.762;7.000;2024-01-30T10:38:44;11.90;74.90
14884;DHT22;7534;50.762;7.000;2024-01-30T10:41:12;11.90;75.00
14884;DHT22;7534;50.762;7.000;2024-01-30T10:43:41;11.90;75.10
14884;DHT22;7534;50.762;7.000;2024-01-30T10:46:20;11.80;75.40
14884;DHT22;7534;50.762;7.000;2024-01-30T10:48:54;11.80;75.70
14884;DHT22;7534;50.762;7.000;2024-01-30T10:51:25;11.80;75.70
14884;DHT22;7534;50.762;7.000;2024-01-30T10:53:52;11.70;76.30
14884;DHT22;7534;50.762;7.000;2024-01-30T10:56:20;11.70;76.90
14884;DHT22;7534;50.762;7.000;2024-01-30T10:58:48;11.60;77.20
14884;DHT22;7534;50.762;7.000;2024-01-30T11:01:19;11.60;77.60
14884;DHT22;7534;50.762;7.000;2024-01-30T11:03:49;11.50;78.20
14884;DHT22;7534;50.762;7.000;2024-01-30T11:06:18;11.60;78.10
14884;DHT22;7534;50.762;7.000;2024-01-30T11:08:45;11.70;77.90
14884;DHT22;7534;50.762;7.000;2024-01-30T11:11:12;11.80;77.20
14884;DHT22;7534;50.762;7.000;2024-01-30T11:13:38;11.80;76.20
14884;DHT22;7534;50.762;7.000;2024-01-30T11:16:05;11.60;75.00
14884;DHT22;7534;50.762;7.000;2024-01-30T11:18:31;11.30;75.30
14884;DHT22;7534;50.762;7.000;2024-01-30T11:20:59;11.20;75.30
14884;DHT22;7534;50.762;7.000;2024-01-30T11:23:27;11.20;75.50
14884;DHT22;7534;50.762;7.000;2024-01-30T11:25:54;11.30;76.20
14884;DHT22;7534;50.762;7.000;2024-01-30T11:28:22;11.40;76.90
14884;DHT22;7534;50.762;7.000;2024-01-30T11:30:48;11.60;77.20
14884;DHT22;7534;50.762;7.000;2024-01-30T11:33:30;11.90;76.60
14884;DHT22;7534;50.762;7.000;2024-01-30T11:35:58;12.20;75.30
14884;DHT22;7534;50.762;7.000;2024-01-30T11:38:27;12.40;74.30
14884;DHT22;7534;50.762;7.000;2024-01-30T11:40:54;12.60;73.70
14884;DHT22;7534;50.762;7.000;2024-01-30T11:43:21;12.80;72.40
14884;DHT22;7534;50.762;7.000;2024-01-30T11:45:47;12.90;72.10
14884;DHT22;7534;50.762;7.000;2024-01-30T11:48:17;13.10;71.40
14884;DHT22;7534;50.762;7.000;2024-01-30T11:50:49;13.20;71.30
14884;DHT22;7534;50.762;7.000;2024-01-30T11:53:20;13.30;70.80
14884;DHT22;7534;50.762;7.000;2024-01-30T11:55:52;13.40;69.80
14884;DHT22;7534;50.762;7.000;2024-01-30T11:58:18;13.60;69.10
14884;DHT22;7534;50.762;7.000;2024-01-30T12:00:55;13.70;68.90
14884;DHT22;7534;50.762;7.000;2024-01-30T12:03:21;13.70;68.90
14884;DHT22;7534;50.762;7.000;2024-01-30T12:05:55;13.80;68.10
14884;DHT22;7534;50.762;7.000;2024-01-30T12:08:22;13.90;67.70
14884;DHT22;7534;50.762;7.000;2024-01-30T12:10:58;14.00;67.50
14884;DHT22;7534;50.762;7.000;2024-01-30T12:13:25;14.20;66.60
14884;DHT22;7534;50.762;7.000;2024-01-30T12:15:51;14.10;66.70
14884;DHT22;7534;50.762;7.000;2024-01-30T12:18:20;14.10;66.90
14884;DHT22;7534;50.762;7.000;2024-01-30T12:20:56;14.10;66.90
14884;DHT22;7534;50.762;7.000;2024-01-30T12:23:22;14.10;67.00
14884;DHT22;7534;50.762;7.000;2024-01-30T12:25:51;14.10;66.70
14884;DHT22;7534;50.762;7.000;2024-01-30T12:28:17;14.10;66.30
14884;DHT22;7534;50.762;7.000;2024-01-30T12:30:43;14.10;66.20
14884;DHT22;7534;50.762;7.000;2024-01-30T12:33:08;14.10;66.20
14884;DHT22;7534;50.762;7.000;2024-01-30T12:35:35;14.10;66.00
14884;DHT22;7534;50.762;7.000;2024-01-30T12:38:02;14.10;66.10
14884;DHT22;7534;50.762;7.000;2024-01-30T12:40:28;14.00;66.30
14884;DHT22;7534;50.762;7.000;2024-01-30T12:42:54;14.00;66.30
14884;DHT22;7534;50.762;7.000;2024-01-30T12:45:19;13.90;67.10
14884;DHT22;7534;50.762;7.000;2024-01-30T12:47:47;13.80;67.20
14884;DHT22;7534;50.762;7.000;2024-01-30T12:50:13;13.70;67.90
14884;DHT22;7534;50.762;7.000;2024-01-30T12:52:42;13.70;67.40
14884;DHT22;7534;50.762;7.000;2024-01-30T12:55:08;13.70;67.20
14884;DHT22;7534;50.762;7.000;2024-01-30T12:57:33;13.70;67.40
14884;DHT22;7534;50.762;7.000;2024-01-30T12:59:59;13.70;67.50
14884;DHT22;7534;50.762;7.000;2024-01-30T13:02:25;13.70;67.40
14884;DHT22;7534;50.762;7.000;2024-01-30T13:04:51;13.70;67.90
14884;DHT22;7534;50.762;7.000;2024-01-30T13:07:17;13.70;67.40
14884;DHT22;7534;50.762;7.000;2024-01-30T13:09:43;13.70;67.50
14884;DHT22;7534;50.762;7.000;2024-01-30T13:12:09;13.60;67.90
14884;DHT22;7534;50.762;7.000;2024-01-30T13:14:35;13.70;67.80
14884;DHT22;7534;50.762;7.000;2024-01-30T13:17:01;13.70;67.90
14884;DHT22;7534;50.762;7.000;2024-01-30T13:19:27;13.70;67.40
14884;DHT22;7534;50.762;7.000;2024-01-30T13:21:52;13.70;67.50
14884;DHT22;7534;50.762;7.000;2024-01-30T13:24:18;13.80;67.40
14884;DHT22;7534;50.762;7.000;2024-01-30T13:26:46;13.90;67.60
14884;DHT22;7534;50.762;7.000;2024-01-30T13:29:12;13.90;67.00
14884;DHT22;7534;50.762;7.000;2024-01-30T13:31:38;13.90;67.00
14884;DHT22;7534;50.762;7.000;2024-01-30T13:34:05;13.80;67.30
14884;DHT22;7534;50.762;7.000;2024-01-30T13:36:32;13.70;67.50
14884;DHT22;7534;50.762;7.000;2024-01-30T13:39:01;13.70;68.00
14884;DHT22;7534;50.762;7.000;2024-01-30T13:41:26;13.70;67.80
14884;DHT22;7534;50.762;7.000;2024-01-30T13:43:52;13.70;67.90
14884;DHT22;7534;50.762;7.000;2024-01-30T13:46:19;13.60;68.20
14884;DHT22;7534;50.762;7.000;2024-01-30T13:48:45;13.60;68.30
14884;DHT22;7534;50.762;7.000;2024-01-30T13:51:11;13.60;68.50
14884;DHT22;7534;50.762;7.000;2024-01-30T13:53:38;13.50;68.80
14884;DHT22;7534;50.762;7.000;2024-01-30T13:56:04;13.30;69.40
14884;DHT22;7534;50.762;7.000;2024-01-30T13:58:32;13.20;69.20
14884;DHT22;7534;50.762;7.000;2024-01-30T14:00:59;13.20;69.90
14884;DHT22;7534;50.762;7.000;2024-01-30T14:03:24;13.20;69.70
14884;DHT22;7534;50.762;7.000;2024-01-30T14:05:50;13.10;70.10
14884;DHT22;7534;50.762;7.000;2024-01-30T14:08:19;13.10;69.90
14884;DHT22;7534;50.762;7.000;2024-01-30T14:10:47;13.00;69.90
14884;DHT22;7534;50.762;7.000;2024-01-30T14:13:12;12.90;70.10
14884;DHT22;7534;50.762;7.000;2024-01-30T14:15:38;12.80;70.80
14884;DHT22;7534;50.762;7.000;2024-01-30T14:18:05;12.90;70.70
14884;DHT22;7534;50.762;7.000;2024-01-30T14:20:33;13.00;70.00
14884;DHT22;7534;50.762;7.000;2024-01-30T14:22:59;13.10;70.00
14884;DHT22;7534;50.762;7.000;2024-01-30T14:25:25;13.00;70.40
14884;DHT22;7534;50.762;7.000;2024-01-30T14:27:51;13.00;70.00
14884;DHT22;7534;50.762;7.000;2024-01-30T14:30:19;13.00;69.80
14884;DHT22;7534;50.762;7.000;2024-01-30T14:32:46;13.00;70.20
14884;DHT22;7534;50.762;7.000;2024-01-30T14:35:13;12.90;70.70
14884;DHT22;7534;50.762;7.000;2024-01-30T14:37:39;12.80;70.70
14884;DHT22;7534;50.762;7.000;2024-01-30T14:40:07;12.70;70.90
14884;DHT22;7534;50.762;7.000;2024-01-30T14:42:33;12.70;71.80
14884;DHT22;7534;50.762;7.000;2024-01-30T14:44:59;12.60;72.00
14884;DHT22;7534;50.762;7.000;2024-01-30T14:47:25;12.50;72.30
14884;DHT22;7534;50.762;7.000;2024-01-30T14:49:51;12.50;72.70
14884;DHT22;7534;50.762;7.000;2024-01-30T14:52:18;12.40;73.10
14884;DHT22;7534;50.762;7.000;2024-01-30T14:54:43;12.30;73.80
14884;DHT22;7534;50.762;7.000;2024-01-30T14:57:10;12.20;73.70
14884;DHT22;7534;50.762;7.000;2024-01-30T14:59:52;12.20;73.90
14884;DHT22;7534;50.762;7.000;2024-01-30T15:02:36;12.10;74.00
14884;DHT22;7534;50.762;7.000;2024-01-30T15:05:05;12.00;74.60
14884;DHT22;7534;50.762;7.000;2024-01-30T15:07:34;11.90;74.80
14884;DHT22;7534;50.762;7.000;2024-01-30T15:10:03;11.80;74.90
14884;DHT22;7534;50.762;7.000;2024-01-30T15:12:29;11.70;75.10
14884;DHT22;7534;50.762;7.000;2024-01-30T15:14:55;11.70;75.60
14884;DHT22;7534;50.762;7.000;2024-01-30T15:17:21;11.60;75.90
14884;DHT22;7534;50.762;7.000;2024-01-30T15:19:48;11.60;76.00
14884;DHT22;7534;50.762;7.000;2024-01-30T15:22:14;11.60;76.60
14884;DHT22;7534;50.762;7.000;2024-01-30T15:24:39;11.50;76.80
14884;DHT22;7534;50.762;7.000;2024-01-30T15:27:05;11.40;76.80
14884;DHT22;7534;50.762;7.000;2024-01-30T15:29:31;11.40;77.20
14884;DHT22;7534;50.762;7.000;2024-01-30T15:31:57;11.30;77.30
14884;DHT22;7534;50.762;7.000;2024-01-30T15:34:23;11.20;77.90
14884;DHT22;7534;50.762;7.000;2024-01-30T15:36:48;11.20;78.40
14884;DHT22;7534;50.762;7.000;2024-01-30T15:39:14;11.10;78.50
14884;DHT22;7534;50.762;7.000;2024-01-30T15:41:42;11.00;79.20
14884;DHT22;7534;50.762;7.000;2024-01-30T15:44:08;11.00;79.70
14884;DHT22;7534;50.762;7.000;2024-01-30T15:46:34;11.00;79.90
14884;DHT22;7534;50.762;7.000;2024-01-30T15:49:00;10.90;80.30
14884;DHT22;7534;50.762;7.000;2024-01-30T15:51:26;10.90;81.00